createdAt,value
2022-11-06T00:00:27.190Z,16.60
2022-11-06T00:02:56.475Z,16.88
2022-11-06T00:05:41.329Z,14.13
2022-11-06T00:08:07.710Z,20.05
2022-11-06T00:10:34.094Z,13.43
2022-11-06T00:13:00.556Z,21.65
2022-11-06T00:15:27.569Z,16.85
2022-11-06T00:17:53.960Z,22.70
2022-11-06T00:20:20.514Z,16.10
2022-11-06T00:22:46.896Z,20.30
2022-11-06T00:25:13.292Z,16.20
2022-11-06T00:27:41.289Z,25.25
2022-11-06T00:30:09.562Z,17.63
2022-11-06T00:32:35.944Z,18.70
2022-11-06T00:35:02.335Z,19.20
2022-11-06T00:37:28.726Z,15.30
2022-11-06T00:39:55.112Z,15.05
2022-11-06T00:42:21.489Z,18.83
2022-11-06T00:44:47.898Z,17.33
2022-11-06T00:47:14.297Z,14.48
2022-11-06T00:49:40.696Z,19.17
2022-11-06T00:52:07.127Z,24.90
2022-11-06T00:54:33.500Z,17.77
2022-11-06T00:56:59.898Z,16.45
2022-11-06T00:59:26.268Z,19.48
2022-11-06T01:01:52.759Z,14.50
2022-11-06T01:04:21.662Z,15.80
2022-11-06T01:06:52.906Z,18.40
2022-11-06T01:09:22.134Z,18.83
2022-11-06T01:14:40.021Z,16.00
2022-11-06T01:17:06.663Z,15.27
2022-11-06T01:19:33.040Z,15.55
2022-11-06T01:21:59.454Z,18.48
2022-11-06T01:24:28.461Z,14.60
2022-11-06T01:29:42.125Z,19.73
2022-11-06T01:32:08.546Z,23.38
2022-11-06T01:34:35.137Z,15.38
2022-11-06T01:37:01.559Z,23.05
2022-11-06T01:39:27.971Z,14.02
2022-11-06T01:41:54.510Z,19.50
2022-11-06T01:44:36.042Z,16.30
2022-11-06T01:47:05.098Z,10.93
2022-11-06T01:49:37.616Z,14.43
2022-11-06T01:52:10.341Z,15.57
2022-11-06T01:54:38.961Z,19.77
2022-11-06T01:57:05.837Z,20.33
2022-11-06T01:59:35.604Z,15.73
2022-11-06T02:02:02.074Z,20.38
2022-11-06T02:04:34.412Z,17.98
2022-11-06T02:07:01.093Z,13.15
2022-11-06T02:09:29.782Z,19.83
2022-11-06T02:12:00.569Z,16.65
2022-11-06T02:14:48.216Z,20.02
2022-11-06T02:17:37.324Z,18.70
2022-11-06T02:20:22.058Z,15.98
2022-11-06T02:23:39.536Z,21.85
2022-11-06T02:26:50.427Z,18.27
2022-11-06T02:29:25.547Z,14.45
2022-11-06T02:31:55.958Z,14.77
2022-11-06T02:34:25.980Z,17.20
2022-11-06T02:37:00.274Z,19.08
2022-11-06T02:39:29.439Z,14.82
2022-11-06T02:41:59.395Z,33.05
2022-11-06T02:44:28.998Z,17.77
2022-11-06T02:47:03.345Z,17.77
2022-11-06T02:49:42.869Z,16.15
2022-11-06T02:52:29.241Z,13.77
2022-11-06T02:55:01.341Z,16.50
2022-11-06T02:57:31.829Z,23.10
2022-11-06T03:00:03.844Z,10.93
2022-11-06T03:02:38.289Z,17.38
2022-11-06T03:05:12.754Z,20.20
2022-11-06T03:07:50.456Z,17.02
2022-11-06T03:10:17.144Z,16.30
2022-11-06T03:12:52.340Z,21.60
2022-11-06T03:15:35.066Z,17.25
2022-11-06T03:18:17.084Z,19.20
2022-11-06T03:20:58.448Z,26.23
2022-11-06T03:23:27.137Z,17.98
2022-11-06T03:26:09.052Z,15.88
2022-11-06T03:28:47.616Z,23.42
2022-11-06T03:31:19.201Z,17.38
2022-11-06T03:33:58.348Z,25.00
2022-11-06T03:36:35.115Z,17.80
2022-11-06T03:39:06.246Z,17.27
2022-11-06T03:41:40.116Z,26.58
2022-11-06T03:44:11.183Z,21.08
2022-11-06T03:49:10.808Z,21.35
2022-11-06T03:51:53.702Z,20.50
2022-11-06T03:54:27.335Z,23.17
2022-11-06T03:57:06.185Z,24.35
2022-11-06T03:59:39.513Z,24.70
2022-11-06T04:02:06.074Z,19.05
2022-11-06T04:04:41.565Z,19.40
2022-11-06T04:07:13.116Z,17.13
2022-11-06T04:10:01.000Z,17.13
2022-11-06T04:12:49.935Z,21.77
2022-11-06T04:15:19.381Z,19.35
2022-11-06T04:17:45.754Z,20.13
2022-11-06T04:20:38.161Z,19.30
2022-11-06T04:23:14.282Z,20.05
2022-11-06T04:26:30.450Z,18.83
2022-11-06T04:29:06.732Z,17.73
2022-11-06T04:31:42.076Z,24.90
2022-11-06T04:34:27.709Z,20.15
2022-11-06T04:37:15.280Z,16.02
2022-11-06T04:40:04.598Z,19.08
2022-11-06T04:43:01.502Z,18.10
2022-11-06T04:45:35.561Z,17.30
2022-11-06T04:48:03.996Z,18.65
2022-11-06T04:50:35.493Z,19.42
2022-11-06T04:53:04.135Z,16.40
2022-11-06T04:55:30.752Z,18.90
2022-11-06T04:57:57.253Z,22.45
2022-11-06T05:00:24.430Z,18.58
2022-11-06T05:02:50.804Z,16.52
2022-11-06T05:05:17.197Z,22.75
2022-11-06T05:07:43.574Z,19.70
2022-11-06T05:10:09.969Z,19.13
2022-11-06T05:12:36.350Z,15.38
2022-11-06T05:15:02.720Z,23.33
2022-11-06T05:17:32.618Z,16.88
2022-11-06T05:20:01.764Z,17.83
2022-11-06T05:22:46.806Z,22.25
2022-11-06T05:25:13.236Z,16.25
2022-11-06T05:27:39.609Z,16.48
2022-11-06T05:30:06.580Z,18.20
2022-11-06T05:32:32.973Z,16.40
2022-11-06T05:34:59.409Z,16.38
2022-11-06T05:37:27.321Z,22.17
2022-11-06T05:39:53.728Z,20.60
2022-11-06T05:42:21.460Z,16.27
2022-11-06T05:44:47.832Z,15.55
2022-11-06T05:47:14.256Z,14.32
2022-11-06T05:49:40.663Z,14.70
2022-11-06T05:52:07.058Z,22.10
2022-11-06T05:54:33.433Z,19.00
2022-11-06T05:56:59.817Z,18.00
2022-11-06T05:59:26.209Z,14.38
2022-11-06T06:01:52.638Z,14.73
2022-11-06T06:04:19.071Z,17.67
2022-11-06T06:06:45.806Z,13.75
2022-11-06T06:09:12.183Z,18.52
2022-11-06T06:11:38.563Z,19.63
2022-11-06T06:14:05.007Z,19.23
2022-11-06T06:16:31.525Z,14.10
2022-11-06T06:18:57.925Z,16.42
2022-11-06T06:21:24.302Z,16.40
2022-11-06T06:23:50.697Z,19.15
2022-11-06T06:26:17.146Z,14.00
2022-11-06T06:28:43.663Z,20.73
2022-11-06T06:31:10.736Z,18.27
2022-11-06T06:33:37.117Z,21.70
2022-11-06T06:36:04.905Z,17.63
2022-11-06T06:38:31.292Z,18.90
2022-11-06T06:41:05.853Z,18.30
2022-11-06T06:43:32.479Z,15.52
2022-11-06T06:46:00.366Z,16.00
2022-11-06T06:48:27.371Z,15.02
2022-11-06T06:50:56.870Z,16.38
2022-11-06T06:53:23.253Z,23.73
2022-11-06T06:55:49.636Z,23.80
2022-11-06T06:58:18.076Z,15.38
2022-11-06T07:00:45.107Z,16.25
2022-11-06T07:03:11.648Z,25.00
2022-11-06T07:05:39.122Z,18.27
2022-11-06T07:08:05.705Z,13.98
2022-11-06T07:10:32.489Z,19.60
2022-11-06T07:13:03.302Z,16.42
2022-11-06T07:15:29.714Z,17.95
2022-11-06T07:17:56.090Z,15.05
2022-11-06T07:20:22.464Z,16.52
2022-11-06T07:22:48.839Z,18.80
2022-11-06T07:25:15.230Z,16.90
2022-11-06T07:27:41.602Z,16.30
2022-11-06T07:30:08.355Z,17.13
2022-11-06T07:32:34.728Z,20.33
2022-11-06T07:35:01.122Z,12.65
2022-11-06T07:37:27.506Z,16.88
2022-11-06T07:39:53.914Z,16.90
2022-11-06T07:42:20.297Z,18.10
2022-11-06T07:44:57.640Z,17.73
2022-11-06T07:47:24.033Z,16.80
2022-11-06T07:49:51.293Z,18.27
2022-11-06T07:52:17.789Z,21.25
2022-11-06T07:54:44.165Z,17.88
2022-11-06T07:57:10.560Z,20.27
2022-11-06T07:59:36.946Z,17.23
2022-11-06T08:02:03.417Z,15.20
2022-11-06T08:04:29.945Z,15.27
2022-11-06T08:06:59.334Z,17.13
2022-11-06T08:09:25.733Z,17.05
2022-11-06T08:11:52.097Z,17.20
2022-11-06T08:14:18.486Z,16.23
2022-11-06T08:16:44.871Z,17.25
2022-11-06T08:19:11.270Z,14.63
2022-11-06T08:21:37.658Z,16.30
2022-11-06T08:24:04.721Z,21.33
2022-11-06T08:26:31.923Z,20.52
2022-11-06T08:28:58.421Z,16.23
2022-11-06T08:31:25.029Z,17.55
2022-11-06T08:33:51.596Z,16.10
2022-11-06T08:36:17.969Z,19.88
2022-11-06T08:38:47.712Z,16.70
2022-11-06T08:41:14.389Z,14.48
2022-11-06T08:43:40.861Z,15.88
2022-11-06T08:46:09.367Z,14.82
2022-11-06T08:48:36.362Z,17.40
2022-11-06T08:51:04.899Z,15.75
2022-11-06T08:53:31.365Z,17.77
2022-11-06T08:55:57.761Z,16.23
2022-11-06T08:58:24.137Z,16.83
2022-11-06T09:00:50.547Z,16.98
2022-11-06T09:03:18.073Z,18.48
2022-11-06T09:05:45.523Z,18.83
2022-11-06T09:08:13.051Z,17.05
2022-11-06T09:10:41.134Z,18.23
2022-11-06T09:13:07.871Z,20.38
2022-11-06T09:15:34.461Z,16.50
2022-11-06T09:18:01.151Z,17.13
2022-11-06T09:20:27.815Z,13.70
2022-11-06T09:22:55.033Z,17.67
2022-11-06T09:25:21.917Z,13.68
2022-11-06T09:27:58.575Z,12.40
2022-11-06T09:30:27.278Z,11.85
2022-11-06T09:32:56.107Z,14.25
2022-11-06T09:35:24.493Z,21.23
2022-11-06T09:37:51.272Z,12.27
2022-11-06T09:40:26.811Z,14.73
2022-11-06T09:43:08.113Z,16.35
2022-11-06T09:45:39.148Z,16.00
2022-11-06T09:51:00.173Z,14.75
2022-11-06T09:53:51.591Z,15.30
2022-11-06T09:56:21.741Z,16.55
2022-11-06T09:58:49.308Z,13.27
2022-11-06T10:01:25.957Z,12.73
2022-11-06T10:03:59.931Z,17.60
2022-11-06T10:06:28.152Z,14.57
2022-11-06T10:08:58.870Z,15.27
2022-11-06T10:11:33.635Z,11.55
2022-11-06T10:14:14.006Z,14.00
2022-11-06T10:16:50.833Z,14.37
2022-11-06T10:19:41.332Z,10.63
2022-11-06T10:22:07.689Z,14.70
2022-11-06T10:24:46.519Z,15.55
2022-11-06T10:27:27.977Z,13.02
2022-11-06T10:30:04.693Z,10.15
2022-11-06T10:32:53.042Z,10.77
2022-11-06T10:35:23.998Z,15.25
2022-11-06T10:38:14.679Z,13.68
2022-11-06T10:40:45.199Z,16.17
2022-11-06T10:43:20.735Z,14.37
2022-11-06T10:45:52.803Z,11.95
2022-11-06T10:48:34.392Z,14.68
2022-11-06T10:51:25.294Z,9.75
2022-11-06T10:54:17.404Z,11.80
2022-11-06T10:56:58.377Z,16.38
2022-11-06T10:59:24.966Z,10.00
2022-11-06T11:01:51.846Z,9.35
2022-11-06T11:04:18.368Z,13.70
2022-11-06T11:06:44.754Z,13.02
2022-11-06T11:09:29.269Z,12.55
2022-11-06T11:11:55.706Z,7.97
2022-11-06T11:14:25.359Z,12.70
2022-11-06T11:16:52.601Z,11.85
2022-11-06T11:19:26.592Z,11.48
2022-11-06T11:21:55.493Z,7.60
2022-11-06T11:24:21.884Z,11.80
2022-11-06T11:26:51.030Z,7.85
2022-11-06T11:29:25.950Z,11.25
2022-11-06T11:31:56.650Z,16.50
2022-11-06T11:34:29.273Z,19.17
2022-11-06T11:36:58.098Z,12.80
2022-11-06T11:39:28.984Z,12.45
2022-11-06T11:42:31.326Z,11.07
2022-11-06T11:45:14.631Z,11.57
2022-11-06T11:47:43.574Z,7.72
2022-11-06T11:50:21.923Z,8.05
2022-11-06T11:52:51.345Z,6.28
2022-11-06T11:55:21.112Z,12.52
2022-11-06T11:57:54.652Z,7.65
2022-11-06T12:00:23.360Z,9.82
2022-11-06T12:03:05.831Z,9.82
2022-11-06T12:05:38.276Z,11.55
2022-11-06T12:08:06.326Z,12.45
2022-11-06T12:10:38.853Z,8.57
2022-11-06T12:13:07.890Z,10.73
2022-11-06T12:15:49.775Z,12.55
2022-11-06T12:18:29.219Z,9.02
2022-11-06T12:21:08.095Z,15.07
2022-11-06T12:23:42.803Z,11.75
2022-11-06T12:26:38.989Z,9.50
2022-11-06T12:29:14.415Z,10.73
2022-11-06T12:31:47.639Z,7.82
2022-11-06T12:34:57.616Z,10.90
2022-11-06T12:37:42.855Z,9.32
2022-11-06T12:40:25.475Z,11.23
2022-11-06T12:43:03.879Z,9.50
2022-11-06T12:45:53.527Z,4.63
2022-11-06T12:48:44.451Z,10.13
2022-11-06T12:51:35.392Z,13.00
2022-11-06T12:54:39.130Z,9.80
2022-11-06T12:57:11.578Z,8.93
2022-11-06T12:59:59.271Z,15.50
2022-11-06T13:03:03.313Z,12.45
2022-11-06T13:05:36.406Z,8.45
2022-11-06T13:08:30.466Z,7.78
2022-11-06T13:11:17.449Z,8.05
2022-11-06T13:13:55.798Z,7.38
2022-11-06T13:16:31.884Z,11.25
2022-11-06T13:19:10.425Z,21.13
2022-11-06T13:21:52.260Z,9.38
2022-11-06T13:24:44.206Z,8.98
2022-11-06T13:27:13.585Z,6.47
2022-11-06T13:29:41.401Z,8.70
2022-11-06T13:32:19.024Z,9.00
2022-11-06T13:34:50.715Z,7.18
2022-11-06T13:37:45.335Z,7.65
2022-11-06T13:40:41.045Z,12.50
2022-11-06T13:43:17.572Z,9.15
2022-11-06T13:46:23.602Z,9.05
2022-11-06T13:49:06.347Z,5.18
2022-11-06T13:51:50.919Z,6.13
2022-11-06T13:54:31.476Z,8.38
2022-11-06T13:57:13.017Z,10.73
2022-11-06T14:00:07.755Z,9.02
2022-11-06T14:02:51.894Z,7.90
2022-11-06T14:05:43.033Z,7.50
2022-11-06T14:10:55.665Z,7.32
2022-11-06T14:13:27.981Z,6.25
2022-11-06T14:16:03.710Z,6.57
2022-11-06T14:18:30.475Z,9.85
2022-11-06T14:21:34.771Z,8.32
2022-11-06T14:24:28.230Z,10.40
2022-11-06T14:26:55.358Z,7.60
2022-11-06T14:29:27.752Z,6.35
2022-11-06T14:32:32.255Z,8.10
2022-11-06T14:35:33.864Z,8.88
2022-11-06T14:38:09.288Z,6.50
2022-11-06T14:40:38.001Z,10.73
2022-11-06T14:43:21.777Z,5.50
2022-11-06T14:46:22.660Z,6.75
2022-11-06T14:48:54.562Z,8.90
2022-11-06T14:51:29.173Z,7.72
2022-11-06T14:53:59.569Z,7.85
2022-11-06T14:56:28.531Z,7.55
2022-11-06T14:59:02.267Z,6.07
2022-11-06T15:01:32.134Z,6.35
2022-11-06T15:04:14.921Z,7.40
2022-11-06T15:06:43.703Z,7.40
2022-11-06T15:09:35.864Z,9.00
2022-11-06T15:12:05.460Z,8.20
2022-11-06T15:14:31.790Z,8.15
2022-11-06T15:17:06.740Z,11.20
2022-11-06T15:19:47.300Z,8.45
2022-11-06T15:22:39.972Z,10.65
2022-11-06T15:25:21.532Z,6.55
2022-11-06T15:27:56.870Z,8.70
2022-11-06T15:30:23.691Z,10.35
2022-11-06T15:32:52.716Z,5.63
2022-11-06T15:35:25.745Z,7.68
2022-11-06T15:37:56.564Z,6.90
2022-11-06T15:40:30.178Z,6.88
2022-11-06T15:43:00.124Z,5.32
2022-11-06T15:45:28.305Z,9.48
2022-11-06T15:48:17.199Z,6.22
2022-11-06T15:50:43.748Z,6.38
2022-11-06T15:53:13.181Z,10.07
2022-11-06T15:55:49.995Z,5.43
2022-11-06T15:58:16.501Z,5.78
2022-11-06T16:00:43.441Z,11.85
2022-11-06T16:03:14.909Z,7.35
2022-11-06T16:05:42.274Z,10.15
2022-11-06T16:08:13.352Z,14.50
2022-11-06T16:10:41.049Z,9.38
2022-11-06T16:13:13.623Z,11.02
2022-11-06T16:15:43.690Z,11.38
2022-11-06T16:18:22.344Z,7.78
2022-11-06T16:21:17.597Z,11.25
2022-11-06T16:23:51.174Z,12.57
2022-11-06T16:26:31.594Z,6.78
2022-11-06T16:28:59.918Z,9.27
2022-11-06T16:31:30.994Z,9.75
2022-11-06T16:39:35.383Z,6.18
2022-11-06T16:42:13.954Z,11.05
2022-11-06T16:44:40.258Z,9.93
2022-11-06T16:47:09.666Z,10.93
2022-11-06T16:49:57.162Z,12.32
2022-11-06T16:52:30.091Z,8.35
2022-11-06T16:55:16.764Z,9.43
2022-11-06T16:57:56.966Z,9.10
2022-11-06T17:00:27.689Z,8.52
2022-11-06T17:03:00.157Z,10.23
2022-11-06T17:05:29.081Z,10.00
2022-11-06T17:08:08.476Z,8.20
2022-11-06T17:10:34.855Z,10.13
2022-11-06T17:13:12.785Z,15.35
2022-11-06T17:15:39.865Z,15.60
2022-11-06T17:18:06.627Z,7.80
2022-11-06T17:20:33.624Z,10.40
2022-11-06T17:23:00.015Z,10.02
2022-11-06T17:25:26.415Z,8.63
2022-11-06T17:27:52.993Z,11.75
2022-11-06T17:30:19.364Z,11.45
2022-11-06T17:32:45.745Z,13.93
2022-11-06T17:35:12.123Z,7.90
2022-11-06T17:37:38.531Z,16.83
2022-11-06T17:40:05.230Z,13.77
2022-11-06T17:42:31.665Z,11.63
2022-11-06T17:44:58.065Z,10.55
2022-11-06T17:47:24.444Z,10.43
2022-11-06T17:49:51.335Z,12.82
2022-11-06T17:52:17.753Z,7.68
2022-11-06T17:54:44.135Z,10.82
2022-11-06T17:57:10.566Z,13.40
2022-11-06T17:59:36.963Z,11.05
2022-11-06T18:02:03.590Z,11.20
2022-11-06T18:04:30.622Z,7.03
2022-11-06T18:06:57.622Z,9.00
2022-11-06T18:09:24.395Z,9.18
2022-11-06T18:11:52.624Z,6.28
2022-11-06T18:14:20.096Z,7.28
2022-11-06T18:16:46.854Z,8.70
2022-11-06T18:19:16.289Z,7.53
2022-11-06T18:21:43.143Z,9.45
2022-11-06T18:24:09.792Z,8.50
2022-11-06T18:26:40.007Z,5.78
2022-11-06T18:29:07.575Z,9.77
2022-11-06T18:31:34.874Z,8.85
2022-11-06T18:34:02.303Z,8.35
2022-11-06T18:36:28.708Z,13.25
2022-11-06T18:38:55.103Z,6.05
2022-11-06T18:41:22.437Z,11.32
2022-11-06T18:43:49.047Z,9.65
2022-11-06T18:46:17.784Z,8.95
2022-11-06T18:48:44.604Z,12.55
2022-11-06T18:51:27.845Z,9.32
2022-11-06T18:54:04.610Z,9.80
2022-11-06T18:56:32.343Z,10.68
2022-11-06T18:58:59.457Z,8.35
2022-11-06T19:01:25.973Z,11.45
2022-11-06T19:03:52.520Z,12.70
2022-11-06T19:06:20.211Z,11.27
2022-11-06T19:08:47.612Z,11.95
2022-11-06T19:11:15.777Z,9.75
2022-11-06T19:13:47.495Z,9.27
2022-11-06T19:16:14.662Z,12.82
2022-11-06T19:18:41.801Z,10.38
2022-11-06T19:21:10.731Z,10.95
2022-11-06T19:23:44.447Z,8.88
2022-11-06T19:26:30.723Z,9.88
2022-11-06T19:28:58.235Z,8.90
2022-11-06T19:31:28.810Z,13.77
2022-11-06T19:33:56.342Z,11.52
2022-11-06T19:36:22.723Z,11.85
2022-11-06T19:38:49.098Z,10.40
2022-11-06T19:41:15.509Z,10.05
2022-11-06T19:43:41.897Z,10.70
2022-11-06T19:46:08.734Z,13.32
2022-11-06T19:48:35.409Z,11.15
2022-11-06T19:51:02.075Z,15.00
2022-11-06T19:53:28.466Z,12.50
2022-11-06T19:55:56.026Z,12.50
2022-11-06T19:58:22.555Z,13.80
2022-11-06T20:00:48.933Z,13.13
2022-11-06T20:03:16.783Z,12.63
2022-11-06T20:05:43.817Z,15.38
2022-11-06T20:08:10.392Z,15.32
2022-11-06T20:10:37.273Z,14.13
2022-11-06T20:13:04.624Z,13.48
2022-11-06T20:15:31.198Z,16.48
2022-11-06T20:17:57.587Z,14.98
2022-11-06T20:20:24.373Z,15.60
2022-11-06T20:22:51.131Z,13.52
2022-11-06T20:25:17.654Z,14.48
2022-11-06T20:27:44.291Z,18.25
2022-11-06T20:30:11.455Z,13.50
2022-11-06T20:32:37.952Z,12.73
2022-11-06T20:35:05.715Z,15.68
2022-11-06T20:37:33.045Z,15.82
2022-11-06T20:39:59.446Z,17.05
2022-11-06T20:42:25.846Z,17.30
2022-11-06T20:44:52.251Z,15.10
2022-11-06T20:47:18.657Z,15.93
2022-11-06T20:49:45.071Z,16.55
2022-11-06T20:52:14.053Z,16.98
2022-11-06T20:54:46.679Z,18.15
2022-11-06T20:57:13.504Z,16.30
2022-11-06T20:59:40.075Z,16.50
2022-11-06T21:02:06.577Z,17.67
2022-11-06T21:04:33.111Z,17.95
2022-11-06T21:06:59.493Z,19.25
2022-11-06T21:09:26.029Z,20.65
2022-11-06T21:11:52.410Z,18.23
2022-11-06T21:14:18.822Z,18.45
2022-11-06T21:16:45.846Z,18.27
2022-11-06T21:19:12.224Z,17.98
2022-11-06T21:21:38.674Z,18.30
2022-11-06T21:24:06.148Z,18.20
2022-11-06T21:26:35.379Z,16.05
2022-11-06T21:29:04.569Z,17.15
2022-11-06T21:31:31.580Z,19.42
2022-11-06T21:34:00.004Z,16.05
2022-11-06T21:36:30.220Z,22.38
2022-11-06T21:38:59.507Z,18.30
2022-11-06T21:41:28.110Z,20.63
2022-11-06T21:43:54.573Z,21.33
2022-11-06T21:46:21.990Z,18.90
2022-11-06T21:48:50.013Z,19.50
2022-11-06T21:51:24.215Z,19.67
2022-11-06T21:54:09.927Z,19.95
2022-11-06T21:56:37.977Z,20.30
2022-11-06T21:59:07.237Z,23.92
2022-11-06T22:01:33.921Z,21.85
2022-11-06T22:04:00.954Z,20.92
2022-11-06T22:06:28.877Z,21.02
2022-11-06T22:08:57.530Z,22.50
2022-11-06T22:11:32.381Z,20.13
2022-11-06T22:14:01.074Z,22.15
2022-11-06T22:16:30.153Z,20.73
2022-11-06T22:18:57.582Z,19.77
2022-11-06T22:21:26.892Z,24.30
2022-11-06T22:23:53.679Z,22.85
2022-11-06T22:26:25.970Z,20.77
2022-11-06T22:28:54.585Z,19.63
2022-11-06T22:31:21.531Z,23.80
2022-11-06T22:33:53.398Z,25.23
2022-11-06T22:36:21.779Z,19.58
2022-11-06T22:38:48.593Z,21.60
2022-11-06T22:41:18.399Z,19.88
2022-11-06T22:43:44.797Z,19.80
2022-11-06T22:46:21.235Z,19.95
2022-11-06T22:48:48.222Z,25.15
2022-11-06T22:51:17.842Z,19.20
2022-11-06T22:53:44.338Z,20.45
2022-11-06T22:56:13.938Z,23.35
2022-11-06T22:58:41.296Z,19.65
2022-11-06T23:01:09.356Z,23.25
2022-11-06T23:03:35.859Z,23.65
2022-11-06T23:06:04.834Z,23.80
2022-11-06T23:08:31.689Z,22.70
2022-11-06T23:10:58.924Z,22.20
2022-11-06T23:13:25.337Z,22.98
2022-11-06T23:16:00.125Z,21.42
2022-11-06T23:18:26.516Z,23.20
2022-11-06T23:20:52.905Z,21.70
2022-11-06T23:23:19.350Z,23.17
2022-11-06T23:25:45.736Z,28.58
2022-11-06T23:28:12.154Z,25.23
2022-11-06T23:30:38.545Z,24.00
2022-11-06T23:33:04.946Z,21.13
2022-11-06T23:35:32.813Z,22.67
2022-11-06T23:37:59.993Z,25.60
2022-11-06T23:40:26.728Z,23.63
2022-11-06T23:42:56.044Z,20.30
2022-11-06T23:45:40.883Z,20.30
2022-11-06T23:48:14.421Z,26.73
2022-11-06T23:50:41.694Z,20.00
2022-11-06T23:53:08.095Z,21.40
2022-11-06T23:55:34.609Z,22.00
2022-11-06T23:58:01.007Z,25.45
